sensor_id;sensor_type;location;lat;lon;timestamp;pressure;altitude;pressure_sealevel;temperature;humidity
48630;BME280;34426;52.180;4.462;2022-07-06T00:00:12;149693.91;;;14.92;73.44
48630;BME280;34426;52.180;4.462;2022-07-06T00:02:37;149675.16;;;14.84;73.77
48630;BME280;34426;52.180;4.462;2022-07-06T00:05:03;149672.63;;;14.83;73.32
48630;BME280;34426;52.180;4.462;2022-07-06T00:07:29;149668.94;;;14.81;73.38
48630;BME280;34426;52.180;4.462;2022-07-06T00:09:54;149683.91;;;14.88;72.33
48630;BME280;34426;52.180;4.462;2022-07-06T00:12:19;149692.66;;;14.91;72.56
48630;BME280;34426;52.180;4.462;2022-07-06T00:14:45;149697.66;;;14.93;71.94
48630;BME280;34426;52.180;4.462;2022-07-06T00:17:12;149678.91;;;14.86;72.64
48630;BME280;34426;52.180;4.462;2022-07-06T00:19:37;149683.91;;;14.88;72.63
48630;BME280;34426;52.180;4.462;2022-07-06T00:22:03;149650.16;;;14.74;73.31
48630;BME280;34426;52.180;4.462;2022-07-06T00:24:28;149631.41;;;14.66;74.43
48630;BME280;34426;52.180;4.462;2022-07-06T00:26:53;149655.13;;;14.76;74.21
48630;BME280;34426;52.180;4.462;2022-07-06T00:29:19;149666.41;;;14.80;74.09
48630;BME280;34426;52.180;4.462;2022-07-06T00:31:44;149646.41;;;14.72;74.56
48630;BME280;34426;52.180;4.462;2022-07-06T00:34:11;149638.88;;;14.69;75.18
48630;BME280;34426;52.180;4.462;2022-07-06T00:36:36;149650.16;;;14.74;75.73
48630;BME280;34426;52.180;4.462;2022-07-06T00:39:02;149653.91;;;14.75;75.95
48630;BME280;34426;52.180;4.462;2022-07-06T00:41:27;149642.63;;;14.71;76.53
48630;BME280;34426;52.180;4.462;2022-07-06T00:43:54;149632.66;;;14.67;77.36
48630;BME280;34426;52.180;4.462;2022-07-06T00:46:22;149642.63;;;14.71;77.40
48630;BME280;34426;52.180;4.462;2022-07-06T00:48:50;149636.41;;;14.68;77.29
48630;BME280;34426;52.180;4.462;2022-07-06T00:51:17;149648.91;;;14.73;77.15
48630;BME280;34426;52.180;4.462;2022-07-06T00:53:43;149653.91;;;14.75;76.91
48630;BME280;34426;52.180;4.462;2022-07-06T00:56:10;149658.91;;;14.77;76.85
48630;BME280;34426;52.180;4.462;2022-07-06T00:58:35;149671.41;;;14.82;76.72
48630;BME280;34426;52.180;4.462;2022-07-06T01:01:01;149668.94;;;14.81;76.61
48630;BME280;34426;52.180;4.462;2022-07-06T01:03:26;149688.91;;;14.90;76.39
48630;BME280;34426;52.180;4.462;2022-07-06T01:05:52;149682.69;;;14.87;76.54
48630;BME280;34426;52.180;4.462;2022-07-06T01:08:19;149661.41;;;14.78;77.36
48630;BME280;34426;52.180;4.462;2022-07-06T01:10:44;149666.41;;;14.80;77.50
48630;BME280;34426;52.180;4.462;2022-07-06T01:13:10;149653.91;;;14.75;77.86
48630;BME280;34426;52.180;4.462;2022-07-06T01:15:35;149643.91;;;14.71;78.01
48630;BME280;34426;52.180;4.462;2022-07-06T01:18:01;149633.88;;;14.67;78.25
48630;BME280;34426;52.180;4.462;2022-07-06T01:20:29;149632.66;;;14.67;78.17
48630;BME280;34426;52.180;4.462;2022-07-06T01:22:54;149642.63;;;14.71;77.28
48630;BME280;34426;52.180;4.462;2022-07-06T01:25:20;149628.88;;;14.65;77.52
48630;BME280;34426;52.180;4.462;2022-07-06T01:27:46;149651.38;;;14.74;76.78
48630;BME280;34426;52.180;4.462;2022-07-06T01:30:13;149643.91;;;14.71;76.64
48630;BME280;34426;52.180;4.462;2022-07-06T01:32:39;149646.41;;;14.72;76.78
48630;BME280;34426;52.180;4.462;2022-07-06T01:35:06;149645.16;;;14.72;76.53
48630;BME280;34426;52.180;4.462;2022-07-06T01:37:33;149630.13;;;14.65;76.85
48630;BME280;34426;52.180;4.462;2022-07-06T01:39:59;149635.13;;;14.68;76.49
48630;BME280;34426;52.180;4.462;2022-07-06T01:42:24;149646.41;;;14.72;76.04
48630;BME280;34426;52.180;4.462;2022-07-06T01:44:50;149622.63;;;14.62;76.80
48630;BME280;34426;52.180;4.462;2022-07-06T01:47:15;149625.13;;;14.63;76.74
48630;BME280;34426;52.180;4.462;2022-07-06T01:49:41;149632.66;;;14.67;76.94
48630;BME280;34426;52.180;4.462;2022-07-06T01:52:06;149651.38;;;14.74;76.12
48630;BME280;34426;52.180;4.462;2022-07-06T01:54:33;149651.38;;;14.74;76.24
48630;BME280;34426;52.180;4.462;2022-07-06T01:56:58;149658.91;;;14.77;75.78
48630;BME280;34426;52.180;4.462;2022-07-06T01:59:24;149652.66;;;14.75;76.28
48630;BME280;34426;52.180;4.462;2022-07-06T02:01:49;149657.66;;;14.77;76.62
48630;BME280;34426;52.180;4.462;2022-07-06T02:04:15;149641.41;;;14.70;77.03
48630;BME280;34426;52.180;4.462;2022-07-06T02:06:40;149626.38;;;14.64;77.35
48630;BME280;34426;52.180;4.462;2022-07-06T02:09:05;149650.16;;;14.74;77.23
48630;BME280;34426;52.180;4.462;2022-07-06T02:11:32;149661.41;;;14.78;77.12
48630;BME280;34426;52.180;4.462;2022-07-06T02:13:58;149665.16;;;14.80;77.48
48630;BME280;34426;52.180;4.462;2022-07-06T02:16:23;149663.88;;;14.79;77.89
48630;BME280;34426;52.180;4.462;2022-07-06T02:18:48;149661.41;;;14.78;76.79
48630;BME280;34426;52.180;4.462;2022-07-06T02:21:14;149652.66;;;14.75;77.54
48630;BME280;34426;52.180;4.462;2022-07-06T02:23:39;149653.91;;;14.75;77.82
48630;BME280;34426;52.180;4.462;2022-07-06T02:26:05;149651.38;;;14.74;76.64
48630;BME280;34426;52.180;4.462;2022-07-06T02:28:32;149641.41;;;14.70;76.74
48630;BME280;34426;52.180;4.462;2022-07-06T02:30:57;149635.13;;;14.68;76.56
48630;BME280;34426;52.180;4.462;2022-07-06T02:33:22;149642.63;;;14.71;76.00
48630;BME280;34426;52.180;4.462;2022-07-06T02:35:48;149642.63;;;14.71;75.75
48630;BME280;34426;52.180;4.462;2022-07-06T02:38:13;149635.13;;;14.68;75.21
48630;BME280;34426;52.180;4.462;2022-07-06T02:40:39;149633.88;;;14.67;74.37
48630;BME280;34426;52.180;4.462;2022-07-06T02:43:05;149631.41;;;14.66;73.82
48630;BME280;34426;52.180;4.462;2022-07-06T02:45:32;149635.13;;;14.68;73.69
48630;BME280;34426;52.180;4.462;2022-07-06T02:47:57;149642.63;;;14.71;73.47
48630;BME280;34426;52.180;4.462;2022-07-06T02:50:23;149636.41;;;14.68;73.55
48630;BME280;34426;52.180;4.462;2022-07-06T02:52:48;149648.91;;;14.73;73.57
48630;BME280;34426;52.180;4.462;2022-07-06T02:55:14;149660.13;;;14.78;73.49
48630;BME280;34426;52.180;4.462;2022-07-06T02:57:39;149657.66;;;14.77;73.49
48630;BME280;34426;52.180;4.462;2022-07-06T03:00:06;149643.91;;;14.71;73.48
48630;BME280;34426;52.180;4.462;2022-07-06T03:02:33;149633.88;;;14.67;73.88
48630;BME280;34426;52.180;4.462;2022-07-06T03:04:59;149627.66;;;14.64;74.14
48630;BME280;34426;52.180;4.462;2022-07-06T03:07:24;149623.91;;;14.63;74.01
48630;BME280;34426;52.180;4.462;2022-07-06T03:09:49;149623.91;;;14.63;74.69
48630;BME280;34426;52.180;4.462;2022-07-06T03:12:15;149616.38;;;14.60;74.60
48630;BME280;34426;52.180;4.462;2022-07-06T03:14:40;149625.13;;;14.63;74.51
48630;BME280;34426;52.180;4.462;2022-07-06T03:17:06;149637.63;;;14.69;74.78
48630;BME280;34426;52.180;4.462;2022-07-06T03:19:33;149642.63;;;14.71;74.75
48630;BME280;34426;52.180;4.462;2022-07-06T03:21:58;149655.13;;;14.76;74.83
48630;BME280;34426;52.180;4.462;2022-07-06T03:24:24;149651.38;;;14.74;74.61
48630;BME280;34426;52.180;4.462;2022-07-06T03:26:49;149673.94;;;14.83;73.56
48630;BME280;34426;52.180;4.462;2022-07-06T03:29:14;149681.38;;;14.87;73.27
48630;BME280;34426;52.180;4.462;2022-07-06T03:31:40;149693.91;;;14.92;72.72
48630;BME280;34426;52.180;4.462;2022-07-06T03:34:05;149688.91;;;14.90;71.71
48630;BME280;34426;52.180;4.462;2022-07-06T03:36:32;149711.44;;;14.99;70.90
48630;BME280;34426;52.180;4.462;2022-07-06T03:38:57;149715.22;;;15.00;70.81
48630;BME280;34426;52.180;4.462;2022-07-06T03:41:23;149717.69;;;15.01;70.68
48630;BME280;34426;52.180;4.462;2022-07-06T03:43:48;149732.72;;;15.08;69.93
48630;BME280;34426;52.180;4.462;2022-07-06T03:46:14;149738.94;;;15.10;70.38
48630;BME280;34426;52.180;4.462;2022-07-06T03:48:39;149738.94;;;15.10;70.81
48630;BME280;34426;52.180;4.462;2022-07-06T03:51:04;149743.94;;;15.12;70.64
48630;BME280;34426;52.180;4.462;2022-07-06T03:53:32;149752.69;;;15.16;69.92
48630;BME280;34426;52.180;4.462;2022-07-06T03:55:57;149752.69;;;15.16;69.43
48630;BME280;34426;52.180;4.462;2022-07-06T03:58:23;149753.97;;;15.16;69.59
48630;BME280;34426;52.180;4.462;2022-07-06T04:00:48;149760.19;;;15.19;69.41
48630;BME280;34426;52.180;4.462;2022-07-06T04:03:13;149763.97;;;15.20;69.38
48630;BME280;34426;52.180;4.462;2022-07-06T04:05:39;149765.19;;;15.21;69.45
48630;BME280;34426;52.180;4.462;2022-07-06T04:08:04;149763.97;;;15.20;69.49
48630;BME280;34426;52.180;4.462;2022-07-06T04:10:31;149763.97;;;15.20;69.64
48630;BME280;34426;52.180;4.462;2022-07-06T04:12:56;149777.72;;;15.26;69.55
48630;BME280;34426;52.180;4.462;2022-07-06T04:15:22;149783.97;;;15.29;69.21
48630;BME280;34426;52.180;4.462;2022-07-06T04:17:47;149786.50;;;15.30;69.29
48630;BME280;34426;52.180;4.462;2022-07-06T04:20:13;149791.50;;;15.32;69.80
48630;BME280;34426;52.180;4.462;2022-07-06T04:22:39;149797.72;;;15.34;69.78
48630;BME280;34426;52.180;4.462;2022-07-06T04:25:05;149793.97;;;15.33;69.67
48630;BME280;34426;52.180;4.462;2022-07-06T04:27:32;149780.22;;;15.27;70.37
48630;BME280;34426;52.180;4.462;2022-07-06T04:29:58;149770.25;;;15.23;70.09
48630;BME280;34426;52.180;4.462;2022-07-06T04:32:23;149763.97;;;15.20;70.30
48630;BME280;34426;52.180;4.462;2022-07-06T04:34:48;149763.97;;;15.20;70.74
48630;BME280;34426;52.180;4.462;2022-07-06T04:37:14;149760.19;;;15.19;70.74
48630;BME280;34426;52.180;4.462;2022-07-06T04:39:39;149763.97;;;15.20;71.45
48630;BME280;34426;52.180;4.462;2022-07-06T04:42:05;149763.97;;;15.20;72.13
48630;BME280;34426;52.180;4.462;2022-07-06T04:44:32;149748.97;;;15.14;71.66
48630;BME280;34426;52.180;4.462;2022-07-06T04:46:58;149768.94;;;15.23;71.64
48630;BME280;34426;52.180;4.462;2022-07-06T04:49:23;149772.72;;;15.24;71.45
48630;BME280;34426;52.180;4.462;2022-07-06T04:51:48;149774.00;;;15.25;70.97
48630;BME280;34426;52.180;4.462;2022-07-06T04:54:14;149772.72;;;15.24;70.71
48630;BME280;34426;52.180;4.462;2022-07-06T04:56:39;149756.44;;;15.17;71.10
48630;BME280;34426;52.180;4.462;2022-07-06T04:59:05;149742.69;;;15.12;71.37
48630;BME280;34426;52.180;4.462;2022-07-06T05:01:31;149746.44;;;15.13;72.28
48630;BME280;34426;52.180;4.462;2022-07-06T05:03:57;149737.69;;;15.10;72.66
48630;BME280;34426;52.180;4.462;2022-07-06T05:06:22;149737.69;;;15.10;72.26
48630;BME280;34426;52.180;4.462;2022-07-06T05:08:48;149743.94;;;15.12;71.68
48630;BME280;34426;52.180;4.462;2022-07-06T05:11:13;149746.44;;;15.13;70.68
48630;BME280;34426;52.180;4.462;2022-07-06T05:13:38;149762.72;;;15.20;70.49
48630;BME280;34426;52.180;4.462;2022-07-06T05:16:04;149758.97;;;15.18;71.07
48630;BME280;34426;52.180;4.462;2022-07-06T05:18:31;149771.47;;;15.24;70.97
48630;BME280;34426;52.180;4.462;2022-07-06T05:20:57;149770.25;;;15.23;69.60
48630;BME280;34426;52.180;4.462;2022-07-06T05:23:22;149768.94;;;15.23;69.28
48630;BME280;34426;52.180;4.462;2022-07-06T05:25:48;149768.94;;;15.23;68.15
48630;BME280;34426;52.180;4.462;2022-07-06T05:28:13;149780.22;;;15.27;68.27
48630;BME280;34426;52.180;4.462;2022-07-06T05:30:38;149801.50;;;15.36;68.09
48630;BME280;34426;52.180;4.462;2022-07-06T05:33:04;149816.53;;;15.42;68.40
48630;BME280;34426;52.180;4.462;2022-07-06T05:35:31;149819.00;;;15.43;69.49
48630;BME280;34426;52.180;4.462;2022-07-06T05:37:56;149826.50;;;15.46;70.45
48630;BME280;34426;52.180;4.462;2022-07-06T05:40:22;149829.03;;;15.47;70.97
48630;BME280;34426;52.180;4.462;2022-07-06T05:42:47;149836.50;;;15.50;70.20
48630;BME280;34426;52.180;4.462;2022-07-06T05:45:13;149860.28;;;15.60;68.75
48630;BME280;34426;52.180;4.462;2022-07-06T05:47:38;149879.09;;;15.68;68.05
48630;BME280;34426;52.180;4.462;2022-07-06T05:50:04;149889.06;;;15.72;67.16
48630;BME280;34426;52.180;4.462;2022-07-06T05:52:31;149897.88;;;15.75;67.99
48630;BME280;34426;52.180;4.462;2022-07-06T05:54:57;149900.41;;;15.76;68.64
48630;BME280;34426;52.180;4.462;2022-07-06T05:57:22;149911.63;;;15.81;67.44
48630;BME280;34426;52.180;4.462;2022-07-06T05:59:48;149921.69;;;15.85;67.99
48630;BME280;34426;52.180;4.462;2022-07-06T06:02:13;149952.94;;;15.98;67.48
48630;BME280;34426;52.180;4.462;2022-07-06T06:04:38;149964.22;;;16.03;66.29
48630;BME280;34426;52.180;4.462;2022-07-06T06:07:04;149971.75;;;16.06;66.39
48630;BME280;34426;52.180;4.462;2022-07-06T06:09:31;149994.25;;;16.15;64.75
48630;BME280;34426;52.180;4.462;2022-07-06T06:11:56;149995.50;;;16.15;63.24
48630;BME280;34426;52.180;4.462;2022-07-06T06:14:21;150006.75;;;16.20;64.23
48630;BME280;34426;52.180;4.462;2022-07-06T06:16:47;150015.53;;;16.24;61.36
48630;BME280;34426;52.180;4.462;2022-07-06T06:19:12;150018.03;;;16.25;60.37
48630;BME280;34426;52.180;4.462;2022-07-06T06:21:38;150028.03;;;16.29;60.88
48630;BME280;34426;52.180;4.462;2022-07-06T06:24:03;150030.56;;;16.30;61.77
48630;BME280;34426;52.180;4.462;2022-07-06T06:26:30;150038.03;;;16.33;62.09
48630;BME280;34426;52.180;4.462;2022-07-06T06:28:56;150054.31;;;16.40;63.01
48630;BME280;34426;52.180;4.462;2022-07-06T06:31:21;150061.84;;;16.43;64.53
48630;BME280;34426;52.180;4.462;2022-07-06T06:33:47;150071.84;;;16.47;64.99
48630;BME280;34426;52.180;4.462;2022-07-06T06:36:12;150068.13;;;16.45;65.66
48630;BME280;34426;52.180;4.462;2022-07-06T06:38:37;150071.84;;;16.47;65.47
48630;BME280;34426;52.180;4.462;2022-07-06T06:41:03;150071.84;;;16.47;64.40
48630;BME280;34426;52.180;4.462;2022-07-06T06:43:30;150078.13;;;16.49;63.66
48630;BME280;34426;52.180;4.462;2022-07-06T06:45:55;150109.41;;;16.62;63.00
48630;BME280;34426;52.180;4.462;2022-07-06T06:48:20;150139.44;;;16.75;62.25
48630;BME280;34426;52.180;4.462;2022-07-06T06:50:46;150149.50;;;16.79;60.89
48630;BME280;34426;52.180;4.462;2022-07-06T06:53:11;150158.25;;;16.82;61.02
48630;BME280;34426;52.180;4.462;2022-07-06T06:55:37;150165.81;;;16.85;62.36
48630;BME280;34426;52.180;4.462;2022-07-06T06:58:02;150182.09;;;16.92;62.88
48630;BME280;34426;52.180;4.462;2022-07-06T07:00:29;150154.50;;;16.81;60.70
48630;BME280;34426;52.180;4.462;2022-07-06T07:02:55;150175.81;;;16.89;61.71
48630;BME280;34426;52.180;4.462;2022-07-06T07:05:20;150155.72;;;16.81;62.06
48630;BME280;34426;52.180;4.462;2022-07-06T07:07:45;150153.25;;;16.80;62.89
48630;BME280;34426;52.180;4.462;2022-07-06T07:10:11;150168.28;;;16.86;63.69
48630;BME280;34426;52.180;4.462;2022-07-06T07:12:42;150192.09;;;16.96;62.72
48630;BME280;34426;52.180;4.462;2022-07-06T07:15:08;150199.63;;;16.99;59.90
48630;BME280;34426;52.180;4.462;2022-07-06T07:17:35;150215.91;;;17.06;61.89
48630;BME280;34426;52.180;4.462;2022-07-06T07:20:00;150218.38;;;17.07;60.98
48630;BME280;34426;52.180;4.462;2022-07-06T07:22:26;150242.19;;;17.17;61.97
48630;BME280;34426;52.180;4.462;2022-07-06T07:24:51;150257.19;;;17.23;61.44
48630;BME280;34426;52.180;4.462;2022-07-06T07:27:17;150279.78;;;17.32;58.80
48630;BME280;34426;52.180;4.462;2022-07-06T07:29:42;150289.78;;;17.36;57.35
48630;BME280;34426;52.180;4.462;2022-07-06T07:32:07;150297.31;;;17.39;55.31
48630;BME280;34426;52.180;4.462;2022-07-06T07:34:34;150296.06;;;17.39;55.09
48630;BME280;34426;52.180;4.462;2022-07-06T07:37:00;150292.31;;;17.37;55.62
48630;BME280;34426;52.180;4.462;2022-07-06T07:39:25;150316.06;;;17.47;55.63
48630;BME280;34426;52.180;4.462;2022-07-06T07:41:50;150319.84;;;17.49;57.09
48630;BME280;34426;52.180;4.462;2022-07-06T07:44:16;150354.94;;;17.63;55.33
48630;BME280;34426;52.180;4.462;2022-07-06T07:46:41;150369.94;;;17.69;54.02
48630;BME280;34426;52.180;4.462;2022-07-06T07:49:07;150385.00;;;17.75;55.45
48630;BME280;34426;52.180;4.462;2022-07-06T07:51:34;150383.78;;;17.75;54.18
48630;BME280;34426;52.180;4.462;2022-07-06T07:53:59;150376.25;;;17.72;54.21
48630;BME280;34426;52.180;4.462;2022-07-06T07:56:24;150400.00;;;17.81;54.51
48630;BME280;34426;52.180;4.462;2022-07-06T07:58:50;150427.66;;;17.93;52.29
48630;BME280;34426;52.180;4.462;2022-07-06T08:01:15;150432.66;;;17.95;53.93
48630;BME280;34426;52.180;4.462;2022-07-06T08:03:41;150472.78;;;18.11;53.51
48630;BME280;34426;52.180;4.462;2022-07-06T08:06:06;150537.91;;;18.38;52.47
48630;BME280;34426;52.180;4.462;2022-07-06T08:08:33;150584.28;;;18.57;53.59
48630;BME280;34426;52.180;4.462;2022-07-06T08:10:58;150614.38;;;18.69;52.15
48630;BME280;34426;52.180;4.462;2022-07-06T08:13:24;150636.97;;;18.79;52.67
48630;BME280;34426;52.180;4.462;2022-07-06T08:15:49;150667.09;;;18.91;49.07
48630;BME280;34426;52.180;4.462;2022-07-06T08:18:15;150685.88;;;18.99;46.15
48630;BME280;34426;52.180;4.462;2022-07-06T08:20:40;150683.41;;;18.98;47.50
48630;BME280;34426;52.180;4.462;2022-07-06T08:23:05;150674.63;;;18.94;44.39
48630;BME280;34426;52.180;4.462;2022-07-06T08:25:32;150688.41;;;19.00;47.95
48630;BME280;34426;52.180;4.462;2022-07-06T08:27:58;150705.94;;;19.07;48.41
48630;BME280;34426;52.180;4.462;2022-07-06T08:30:24;150726.03;;;19.15;49.70
48630;BME280;34426;52.180;4.462;2022-07-06T08:32:49;150704.72;;;19.06;46.61
48630;BME280;34426;52.180;4.462;2022-07-06T08:35:14;150704.72;;;19.06;47.01
48630;BME280;34426;52.180;4.462;2022-07-06T08:37:40;150687.16;;;18.99;46.32
48630;BME280;34426;52.180;4.462;2022-07-06T08:40:06;150688.41;;;19.00;44.77
48630;BME280;34426;52.180;4.462;2022-07-06T08:42:35;150669.56;;;18.92;43.80
48630;BME280;34426;52.180;4.462;2022-07-06T08:45:02;150675.88;;;18.94;46.37
48630;BME280;34426;52.180;4.462;2022-07-06T08:47:28;150687.16;;;18.99;45.76
48630;BME280;34426;52.180;4.462;2022-07-06T08:49:55;150695.94;;;19.03;45.78
48630;BME280;34426;52.180;4.462;2022-07-06T08:52:21;150694.66;;;19.02;47.47
48630;BME280;34426;52.180;4.462;2022-07-06T08:54:47;150705.94;;;19.07;47.79
48630;BME280;34426;52.180;4.462;2022-07-06T08:57:13;150718.47;;;19.12;47.90
48630;BME280;34426;52.180;4.462;2022-07-06T08:59:40;150733.56;;;19.18;48.70
48630;BME280;34426;52.180;4.462;2022-07-06T09:02:06;150732.28;;;19.18;47.65
48630;BME280;34426;52.180;4.462;2022-07-06T09:04:32;150746.09;;;19.23;47.62
48630;BME280;34426;52.180;4.462;2022-07-06T09:06:58;150747.34;;;19.24;46.44
48630;BME280;34426;52.180;4.462;2022-07-06T09:09:24;150738.56;;;19.20;45.67
48630;BME280;34426;52.180;4.462;2022-07-06T09:11:50;150778.66;;;19.37;46.37
48630;BME280;34426;52.180;4.462;2022-07-06T09:14:15;150796.25;;;19.44;47.67
48630;BME280;34426;52.180;4.462;2022-07-06T09:16:42;150821.34;;;19.54;47.14
48630;BME280;34426;52.180;4.462;2022-07-06T09:19:10;150796.25;;;19.44;44.64
48630;BME280;34426;52.180;4.462;2022-07-06T09:21:36;150793.72;;;19.43;43.85
48630;BME280;34426;52.180;4.462;2022-07-06T09:24:06;150822.59;;;19.55;44.73
48630;BME280;34426;52.180;4.462;2022-07-06T09:26:31;150856.44;;;19.68;44.46
48630;BME280;34426;52.180;4.462;2022-07-06T09:28:57;150851.44;;;19.66;46.83
48630;BME280;34426;52.180;4.462;2022-07-06T09:31:23;150840.13;;;19.62;45.67
48630;BME280;34426;52.180;4.462;2022-07-06T09:33:57;150806.28;;;19.48;44.18
48630;BME280;34426;52.180;4.462;2022-07-06T09:36:43;150776.19;;;19.36;43.24
48630;BME280;34426;52.180;4.462;2022-07-06T09:39:20;150767.41;;;19.32;43.19
48630;BME280;34426;52.180;4.462;2022-07-06T09:41:45;150779.94;;;19.37;44.50
48630;BME280;34426;52.180;4.462;2022-07-06T09:44:11;150764.88;;;19.31;44.74
48630;BME280;34426;52.180;4.462;2022-07-06T09:46:40;150767.41;;;19.32;44.90
48630;BME280;34426;52.180;4.462;2022-07-06T09:49:08;150759.88;;;19.29;42.75
48630;BME280;34426;52.180;4.462;2022-07-06T09:51:35;150797.50;;;19.44;43.96
48630;BME280;34426;52.180;4.462;2022-07-06T09:54:05;150796.25;;;19.44;43.92
48630;BME280;34426;52.180;4.462;2022-07-06T09:56:36;150808.81;;;19.49;45.39
48630;BME280;34426;52.180;4.462;2022-07-06T09:59:05;150840.13;;;19.62;45.93
48630;BME280;34426;52.180;4.462;2022-07-06T10:01:33;150821.34;;;19.54;45.29
48630;BME280;34426;52.180;4.462;2022-07-06T10:03:58;150803.75;;;19.47;44.30
48630;BME280;34426;52.180;4.462;2022-07-06T10:06:25;150786.19;;;19.40;43.95
48630;BME280;34426;52.180;4.462;2022-07-06T10:08:50;150787.44;;;19.40;43.73
48630;BME280;34426;52.180;4.462;2022-07-06T10:11:16;150782.44;;;19.38;43.61
48630;BME280;34426;52.180;4.462;2022-07-06T10:13:42;150818.81;;;19.53;44.22
48630;BME280;34426;52.180;4.462;2022-07-06T10:16:10;150846.38;;;19.64;45.69
48630;BME280;34426;52.180;4.462;2022-07-06T10:18:35;150870.28;;;19.74;45.26
48630;BME280;34426;52.180;4.462;2022-07-06T10:21:01;150894.13;;;19.84;42.04
48630;BME280;34426;52.180;4.462;2022-07-06T10:23:28;150886.59;;;19.81;42.15
48630;BME280;34426;52.180;4.462;2022-07-06T10:25:55;150914.22;;;19.92;42.24
48630;BME280;34426;52.180;4.462;2022-07-06T10:28:22;150938.00;;;20.02;41.22
48630;BME280;34426;52.180;4.462;2022-07-06T10:30:49;150945.56;;;20.05;40.87
48630;BME280;34426;52.180;4.462;2022-07-06T10:33:16;150968.13;;;20.14;41.02
48630;BME280;34426;52.180;4.462;2022-07-06T10:35:42;151015.81;;;20.34;41.75
48630;BME280;34426;52.180;4.462;2022-07-06T10:38:09;151074.81;;;20.58;41.19
48630;BME280;34426;52.180;4.462;2022-07-06T10:40:37;151088.66;;;20.63;38.24
48630;BME280;34426;52.180;4.462;2022-07-06T10:43:03;151097.44;;;20.67;37.92
48630;BME280;34426;52.180;4.462;2022-07-06T10:45:49;151189.06;;;21.05;39.14
48630;BME280;34426;52.180;4.462;2022-07-06T10:48:16;151253.06;;;21.31;40.40
48630;BME280;34426;52.180;4.462;2022-07-06T10:50:46;151130.06;;;20.80;40.37
48630;BME280;34426;52.180;4.462;2022-07-06T10:53:13;150990.72;;;20.23;40.38
48630;BME280;34426;52.180;4.462;2022-07-06T10:55:41;150964.34;;;20.13;41.97
48630;BME280;34426;52.180;4.462;2022-07-06T10:58:08;150999.50;;;20.27;40.83
48630;BME280;34426;52.180;4.462;2022-07-06T11:00:48;151025.84;;;20.38;41.35
48630;BME280;34426;52.180;4.462;2022-07-06T11:03:33;151055.97;;;20.50;41.32
48630;BME280;34426;52.180;4.462;2022-07-06T11:05:59;151052.19;;;20.49;41.30
48630;BME280;34426;52.180;4.462;2022-07-06T11:08:49;151034.63;;;20.41;42.45
48630;BME280;34426;52.180;4.462;2022-07-06T11:11:17;151004.53;;;20.29;41.99
48630;BME280;34426;52.180;4.462;2022-07-06T11:13:48;151025.84;;;20.38;41.04
48630;BME280;34426;52.180;4.462;2022-07-06T11:16:14;151018.31;;;20.35;41.74
48630;BME280;34426;52.180;4.462;2022-07-06T11:18:40;151082.28;;;20.61;41.69
48630;BME280;34426;52.180;4.462;2022-07-06T11:21:18;151112.50;;;20.73;42.70
48630;BME280;34426;52.180;4.462;2022-07-06T11:23:46;151137.59;;;20.84;40.58
48630;BME280;34426;52.180;4.462;2022-07-06T11:26:11;151212.88;;;21.14;42.04
48630;BME280;34426;52.180;4.462;2022-07-06T11:28:38;151244.28;;;21.27;42.34
48630;BME280;34426;52.180;4.462;2022-07-06T11:31:04;151303.34;;;21.51;41.88
48630;BME280;34426;52.180;4.462;2022-07-06T11:33:29;151347.28;;;21.69;41.02
48630;BME280;34426;52.180;4.462;2022-07-06T11:36:11;151422.63;;;22.00;40.37
48630;BME280;34426;52.180;4.462;2022-07-06T11:38:36;151371.16;;;21.79;39.18
48630;BME280;34426;52.180;4.462;2022-07-06T11:41:02;151391.25;;;21.87;39.92
48630;BME280;34426;52.180;4.462;2022-07-06T11:43:27;151440.22;;;22.07;39.53
48630;BME280;34426;52.180;4.462;2022-07-06T11:45:54;151413.84;;;21.97;39.76
48630;BME280;34426;52.180;4.462;2022-07-06T11:48:19;151401.28;;;21.91;40.48
48630;BME280;34426;52.180;4.462;2022-07-06T11:50:57;151431.41;;;22.04;40.04
48630;BME280;34426;52.180;4.462;2022-07-06T11:53:22;151361.13;;;21.75;40.30
48630;BME280;34426;52.180;4.462;2022-07-06T11:55:48;151347.28;;;21.69;40.09
48630;BME280;34426;52.180;4.462;2022-07-06T11:58:14;151356.06;;;21.73;40.50
48630;BME280;34426;52.180;4.462;2022-07-06T12:00:39;151325.94;;;21.61;40.40
48630;BME280;34426;52.180;4.462;2022-07-06T12:03:06;151369.91;;;21.79;40.80
48630;BME280;34426;52.180;4.462;2022-07-06T12:05:32;151369.91;;;21.79;41.20
48630;BME280;34426;52.180;4.462;2022-07-06T12:08:04;151349.81;;;21.70;42.19
48630;BME280;34426;52.180;4.462;2022-07-06T12:10:31;151398.81;;;21.90;41.58
48630;BME280;34426;52.180;4.462;2022-07-06T12:13:02;151449.00;;;22.11;42.74
48630;BME280;34426;52.180;4.462;2022-07-06T12:15:28;151449.00;;;22.11;42.05
48630;BME280;34426;52.180;4.462;2022-07-06T12:17:53;151470.41;;;22.20;41.66
48630;BME280;34426;52.180;4.462;2022-07-06T12:20:20;151460.31;;;22.16;42.90
48630;BME280;34426;52.180;4.462;2022-07-06T12:22:46;151466.63;;;22.18;43.84
48630;BME280;34426;52.180;4.462;2022-07-06T12:25:11;151469.09;;;22.19;43.30
48630;BME280;34426;52.180;4.462;2022-07-06T12:27:36;151529.47;;;22.44;43.79
48630;BME280;34426;52.180;4.462;2022-07-06T12:30:08;151464.09;;;22.17;44.06
48630;BME280;34426;52.180;4.462;2022-07-06T12:32:34;151322.16;;;21.59;45.73
48630;BME280;34426;52.180;4.462;2022-07-06T12:35:03;151315.91;;;21.56;46.81
48630;BME280;34426;52.180;4.462;2022-07-06T12:37:30;151436.44;;;22.06;45.93
48630;BME280;34426;52.180;4.462;2022-07-06T12:39:55;151456.53;;;22.14;45.23
48630;BME280;34426;52.180;4.462;2022-07-06T12:42:21;151487.97;;;22.27;45.43
48630;BME280;34426;52.180;4.462;2022-07-06T12:44:48;151565.88;;;22.59;45.50